Glencoe, Missouri
Current Conditions -  °F | °C
As of 7:54 PM on Tuesday 21 Oct 2014 (Local Time) from KSUS Reporting Station
Clear Clear  
Wind Chill: 50°   Ceiling: Unl
Heat Index: 50°   Visibility: 10mi
Dew Point: 45°   Wind: 0mph
Humidity: 83%   Direction: NA
Pressure: 30.15"   Gusts: NA
Location:  38.54°N, 90.62°W
Report Text: KSUS 220054Z 00000KT 10SM CLR 10/07 A3015 RMK AO2 SLP212 T01000072
Loading
Personal Weather Stations






























Interactive Weather Map New forecast layout! Learn more

10-Day Weather Forecast

Advertisements
Track Severe Weather on mobile